createdAt,value
2022-12-11T00:01:23.689Z,100524.13
2022-12-11T00:06:25.810Z,100524.13
2022-12-11T00:11:27.929Z,100520.31
2022-12-11T00:16:29.917Z,100524.41
2022-12-11T00:21:32.163Z,100519.97
2022-12-11T00:26:34.115Z,100509.19
2022-12-11T00:31:35.919Z,100513.84
2022-12-11T00:36:38.338Z,100518.53
2022-12-11T00:41:40.270Z,100521.78
2022-12-11T00:46:42.260Z,100522.78
2022-12-11T00:51:44.143Z,100525.41
2022-12-11T00:56:45.988Z,100526.97
2022-12-11T01:01:48.098Z,100528.06
2022-12-11T01:06:50.265Z,100543.53
2022-12-11T01:11:52.717Z,100528.91
2022-12-11T01:16:54.776Z,100528.78
2022-12-11T01:21:56.890Z,100527.84
2022-12-11T01:26:58.931Z,100523.28
2022-12-11T01:32:00.733Z,100530.72
2022-12-11T01:37:02.754Z,100521.84
2022-12-11T01:42:05.124Z,100530.47
2022-12-11T01:47:07.538Z,100519.09
2022-12-11T01:52:15.883Z,100505.19
2022-12-11T01:57:17.774Z,100506.91
2022-12-11T02:02:25.083Z,100509.53
2022-12-11T02:07:26.954Z,100510.25
2022-12-11T02:12:39.453Z,100515.69
2022-12-11T02:17:59.077Z,100516.47
2022-12-11T02:23:04.147Z,100508.28
2022-12-11T02:28:27.908Z,100506.34
2022-12-11T02:33:58.782Z,100507.22
2022-12-11T02:39:02.728Z,100500.00
2022-12-11T02:44:05.505Z,100496.50
2022-12-11T02:49:10.789Z,100497.88
2022-12-11T02:54:18.100Z,100491.88
2022-12-11T02:59:26.698Z,100483.28
2022-12-11T03:04:29.707Z,100479.53
2022-12-11T03:09:32.377Z,100478.09
2022-12-11T03:14:34.362Z,100478.25
2022-12-11T03:20:09.569Z,100467.41
2022-12-11T03:25:17.197Z,100467.34
2022-12-11T03:30:20.779Z,100472.13
2022-12-11T03:35:29.571Z,100473.69
2022-12-11T03:40:35.858Z,100465.50
2022-12-11T03:45:39.827Z,100470.00
2022-12-11T03:50:42.573Z,100468.53
2022-12-11T03:55:46.536Z,100456.19
2022-12-11T04:00:48.490Z,100461.72
2022-12-11T04:05:52.831Z,100452.75
2022-12-11T04:11:14.741Z,100459.78
2022-12-11T04:16:16.689Z,100464.97
2022-12-11T04:21:39.630Z,100465.63
2022-12-11T04:26:43.510Z,100468.63
2022-12-11T04:31:46.183Z,100465.22
2022-12-11T04:36:48.120Z,100457.94
2022-12-11T04:41:50.051Z,100462.59
2022-12-11T04:46:51.851Z,100460.72
2022-12-11T04:51:53.860Z,100449.16
2022-12-11T04:56:55.652Z,100449.00
2022-12-11T05:01:58.088Z,100442.22
2022-12-11T05:07:00.411Z,100432.50
2022-12-11T05:12:02.567Z,100430.78
2022-12-11T05:17:04.657Z,100436.88
2022-12-11T05:22:06.818Z,100430.63
2022-12-11T05:27:08.651Z,100431.75
2022-12-11T05:32:11.031Z,100429.91
2022-12-11T05:37:12.949Z,100436.13
2022-12-11T05:42:14.755Z,100434.41
2022-12-11T05:47:17.077Z,100425.59
2022-12-11T05:52:19.153Z,100433.28
2022-12-11T05:57:21.158Z,100420.22
2022-12-11T06:02:23.338Z,100430.16
2022-12-11T06:07:25.417Z,100427.34
2022-12-11T06:12:28.587Z,100423.81
2022-12-11T06:17:30.366Z,100422.91
2022-12-11T06:22:32.455Z,100417.72
2022-12-11T06:27:34.338Z,100415.25
2022-12-11T06:32:36.378Z,100417.16
2022-12-11T06:37:39.371Z,100416.88
2022-12-11T06:42:41.251Z,100426.47
2022-12-11T06:47:43.815Z,100422.13
2022-12-11T06:52:45.802Z,100433.75
2022-12-11T06:57:47.588Z,100439.53
2022-12-11T07:02:51.001Z,100437.31
2022-12-11T07:07:55.859Z,100439.78
2022-12-11T07:12:57.751Z,100440.63
2022-12-11T07:17:59.781Z,100444.91
2022-12-11T07:23:01.762Z,100443.34
2022-12-11T07:28:03.957Z,100432.94
2022-12-11T07:33:06.937Z,100439.94
2022-12-11T07:38:09.019Z,100444.28
2022-12-11T07:43:10.973Z,100444.44
2022-12-11T07:48:13.179Z,100439.44
2022-12-11T07:53:14.984Z,100450.47
2022-12-11T07:58:16.874Z,100450.63
2022-12-11T08:03:18.927Z,100448.63
2022-12-11T08:08:20.878Z,100460.25
2022-12-11T08:13:23.019Z,100458.47
2022-12-11T08:18:25.061Z,100451.47
2022-12-11T08:23:26.906Z,100459.59
2022-12-11T08:28:28.771Z,100452.53
2022-12-11T08:33:30.683Z,100448.03
2022-12-11T08:38:32.482Z,100446.44
2022-12-11T08:43:34.351Z,100445.16
2022-12-11T08:48:37.826Z,100442.66
2022-12-11T08:53:40.230Z,100445.50
2022-12-11T08:58:42.993Z,100429.19
2022-12-11T09:03:45.265Z,100438.56
2022-12-11T09:08:52.212Z,100432.16
2022-12-11T09:13:54.970Z,100426.91
2022-12-11T09:18:59.139Z,100430.63
2022-12-11T09:24:01.845Z,100421.56
2022-12-11T09:29:05.851Z,100417.19
2022-12-11T09:34:12.014Z,100416.50
2022-12-11T09:39:15.701Z,100424.28
2022-12-11T09:44:20.898Z,100414.16
2022-12-11T09:49:34.407Z,100425.47
2022-12-11T09:54:37.089Z,100415.97
2022-12-11T10:00:11.591Z,100419.78
2022-12-11T10:05:43.305Z,100430.16
2022-12-11T10:10:52.722Z,100428.94
2022-12-11T10:16:20.210Z,100425.75
2022-12-11T10:21:22.971Z,100421.78
2022-12-11T10:26:24.976Z,100426.34
2022-12-11T10:31:42.997Z,100415.81
2022-12-11T10:36:45.494Z,100422.06
2022-12-11T10:41:53.795Z,100415.34
2022-12-11T10:47:07.338Z,100416.06
2022-12-11T10:52:24.582Z,100401.88
2022-12-11T10:57:32.324Z,100390.16
2022-12-11T11:02:39.822Z,100389.69
2022-12-11T11:07:41.992Z,100385.63
2022-12-11T11:12:46.858Z,100381.13
2022-12-11T11:17:55.533Z,100372.28
2022-12-11T11:23:01.897Z,100365.25
2022-12-11T11:28:05.702Z,100362.59
2022-12-11T11:33:20.482Z,100360.34
2022-12-11T11:38:40.569Z,100360.34
2022-12-11T11:43:53.081Z,100355.66
2022-12-11T11:49:13.001Z,100353.75
2022-12-11T11:54:28.261Z,100342.75
2022-12-11T11:59:32.515Z,100340.25
2022-12-11T12:04:35.587Z,100341.75
2022-12-11T12:10:25.250Z,100334.31
2022-12-11T12:15:39.266Z,100340.97
2022-12-11T12:20:54.942Z,100333.97
2022-12-11T12:26:24.081Z,100330.28
2022-12-11T12:32:05.408Z,100330.97
2022-12-11T12:37:13.149Z,100333.97
2022-12-11T12:42:39.279Z,100327.69
2022-12-11T12:47:45.771Z,100326.03
2022-12-11T12:52:52.210Z,100327.00
2022-12-11T12:58:00.730Z,100327.69
2022-12-11T13:03:13.991Z,100330.28
2022-12-11T13:08:26.062Z,100327.97
2022-12-11T13:13:37.997Z,100322.78
2022-12-11T13:18:40.344Z,100330.09
2022-12-11T13:23:42.448Z,100328.97
2022-12-11T13:28:44.313Z,100329.81
2022-12-11T13:33:52.303Z,100335.38
2022-12-11T13:38:58.996Z,100336.94
2022-12-11T13:44:02.209Z,100346.78
2022-12-11T13:49:08.886Z,100360.09
2022-12-11T13:54:19.059Z,100356.31
2022-12-11T13:59:25.402Z,100350.38
2022-12-11T14:04:28.550Z,100351.28
2022-12-11T14:09:30.417Z,100351.09
2022-12-11T14:14:43.478Z,100348.59
2022-12-11T14:19:50.507Z,100341.25
2022-12-11T14:24:56.196Z,100340.72
2022-12-11T14:29:58.244Z,100343.09
2022-12-11T14:35:07.339Z,100337.00
2022-12-11T14:40:19.261Z,100339.88
2022-12-11T14:45:37.020Z,100344.94
2022-12-11T14:50:44.174Z,100339.53
2022-12-11T14:55:48.811Z,100340.81
2022-12-11T15:01:05.679Z,100338.22
2022-12-11T15:06:30.038Z,100344.34
2022-12-11T15:11:32.951Z,100338.94
2022-12-11T15:16:38.741Z,100333.50
2022-12-11T15:21:40.820Z,100339.22
2022-12-11T15:26:48.317Z,100347.06
2022-12-11T15:32:00.010Z,100346.28
2022-12-11T15:37:02.317Z,100347.75
2022-12-11T15:42:06.315Z,100356.47
2022-12-11T15:47:23.383Z,100341.13
2022-12-11T15:52:25.926Z,100354.59
2022-12-11T15:57:27.818Z,100350.59
2022-12-11T16:02:29.667Z,100359.09
2022-12-11T16:07:31.621Z,100359.81
2022-12-11T16:12:33.802Z,100364.78
2022-12-11T16:17:35.795Z,100366.94
2022-12-11T16:22:38.095Z,100357.09
2022-12-11T16:27:40.295Z,100359.16
2022-12-11T16:32:42.518Z,100354.81
2022-12-11T16:37:44.902Z,100342.75
2022-12-11T16:42:47.217Z,100353.59
2022-12-11T16:47:49.316Z,100340.59
2022-12-11T16:52:51.347Z,100344.09
2022-12-11T16:57:53.185Z,100343.97
2022-12-11T17:02:55.086Z,100332.97
2022-12-11T17:07:56.921Z,100326.31
2022-12-11T17:12:58.735Z,100326.97
2022-12-11T17:18:00.628Z,100331.41
2022-12-11T17:23:02.406Z,100339.28
2022-12-11T17:28:04.362Z,100336.25
2022-12-11T17:33:06.356Z,100333.78
2022-12-11T17:38:08.583Z,100336.19
2022-12-11T17:43:12.236Z,100337.13
2022-12-11T17:48:15.098Z,100338.94
2022-12-11T17:53:18.670Z,100329.56
2022-12-11T17:58:23.196Z,100328.81
2022-12-11T18:03:27.123Z,100327.81
2022-12-11T18:08:31.708Z,100336.44
2022-12-11T18:13:33.880Z,100335.09
2022-12-11T18:18:35.937Z,100333.25
2022-12-11T18:23:37.737Z,100325.66
2022-12-11T18:28:39.688Z,100337.84
2022-12-11T18:33:43.927Z,100328.63
2022-12-11T18:38:47.519Z,100342.50
2022-12-11T18:43:49.483Z,100329.09
2022-12-11T18:48:51.495Z,100337.09
2022-12-11T18:53:53.878Z,100331.94
2022-12-11T18:58:56.174Z,100331.41
2022-12-11T19:04:03.576Z,100326.78
2022-12-11T19:09:09.400Z,100329.41
2022-12-11T19:14:11.758Z,100323.88
2022-12-11T19:19:16.937Z,100331.28
2022-12-11T19:24:22.191Z,100341.41
2022-12-11T19:29:32.712Z,100341.72
2022-12-11T19:34:34.973Z,100342.50
2022-12-11T19:39:39.595Z,100329.81
2022-12-11T19:44:41.556Z,100333.78
2022-12-11T19:49:43.580Z,100331.94
2022-12-11T19:54:45.653Z,100335.88
2022-12-11T19:59:50.318Z,100329.88
2022-12-11T20:04:56.063Z,100332.31
2022-12-11T20:09:58.072Z,100340.44
2022-12-11T20:15:00.074Z,100342.88
2022-12-11T20:20:02.085Z,100346.25
2022-12-11T20:25:04.182Z,100346.22
2022-12-11T20:30:07.229Z,100351.00
2022-12-11T20:35:09.702Z,100342.34
2022-12-11T20:40:13.486Z,100349.28
2022-12-11T20:45:15.454Z,100348.16
2022-12-11T20:50:17.982Z,100348.34
2022-12-11T20:55:20.094Z,100350.94
2022-12-11T21:00:22.365Z,100353.44
2022-12-11T21:05:24.398Z,100358.03
2022-12-11T21:10:26.271Z,100353.09
2022-12-11T21:15:28.279Z,100357.13
2022-12-11T21:20:30.743Z,100353.34
2022-12-11T21:25:32.911Z,100358.78
2022-12-11T21:30:34.862Z,100358.88
2022-12-11T21:35:36.705Z,100353.09
2022-12-11T21:40:38.737Z,100352.53
2022-12-11T21:51:10.908Z,100367.19
2022-12-11T21:56:15.472Z,100363.97
2022-12-11T22:01:24.649Z,100367.19
2022-12-11T22:06:26.707Z,100370.25
2022-12-11T22:11:31.383Z,100376.44
2022-12-11T22:16:34.458Z,100371.09
2022-12-11T22:21:36.524Z,100376.66
2022-12-11T22:26:39.312Z,100372.53
2022-12-11T22:31:41.089Z,100372.84
2022-12-11T22:36:43.181Z,100382.03
2022-12-11T22:41:45.261Z,100386.84
2022-12-11T22:46:50.211Z,100386.09
2022-12-11T22:51:52.526Z,100390.28
2022-12-11T22:56:54.628Z,100390.59
2022-12-11T23:01:56.794Z,100387.94
2022-12-11T23:06:58.959Z,100390.59
2022-12-11T23:12:01.830Z,100401.00
2022-12-11T23:17:03.780Z,100394.63
2022-12-11T23:22:05.908Z,100389.50
2022-12-11T23:27:07.790Z,100394.72
2022-12-11T23:32:09.789Z,100389.09
2022-12-11T23:37:11.643Z,100388.22
2022-12-11T23:42:14.511Z,100394.91
2022-12-11T23:47:16.372Z,100395.81
2022-12-11T23:52:18.258Z,100387.94
2022-12-11T23:57:20.113Z,100393.63
